Time;durP1;ratioP1;P1;durP2;ratioP2;P2;SDS_P1;SDS_P2;PMS_P1;PMS_P2;Temp;Humidity;BMP_temperature;BMP_pressure;BME280_temperature;BME280_humidity;BME280_pressure;Samples;Min_cycle;Max_cycle;Signal;HPM_P1;HPM_P2
2022/03/06 07:04:50;;;;;;;;;25.50;21.00;;;;;;;;5082705;27;3508204;-73
2022/03/06 07:07:15;;;;;;;;;16.50;13.50;;;;;;;;5199744;27;22642;-73
2022/03/06 07:09:40;;;;;;;;;11.00;11.00;;;;;;;;5199149;27;13507;-74
2022/03/06 07:12:06;;;;;;;;;24.00;18.00;;;;;;;;5199842;27;11355;-78
2022/03/06 07:14:32;;;;;;;;;22.25;18.75;;;;;;;;5200602;27;10996;-77
2022/03/06 07:16:57;;;;;;;;;21.00;18.50;;;;;;;;5199873;27;11395;-77
2022/03/06 07:19:22;;;;;;;;;21.33;18.67;;;;;;;;5200067;27;11356;-76
2022/03/06 07:21:48;;;;;;;;;20.75;15.75;;;;;;;;5200333;27;8978;-74
2022/03/06 07:24:15;;;;;;;;;22.00;17.50;;;;;;;;5200112;27;11754;-74
2022/03/06 07:26:41;;;;;;;;;21.33;15.67;;;;;;;;5199349;27;11681;-74
2022/03/06 07:29:06;;;;;;;;;18.50;17.50;;;;;;;;5199876;27;11330;-74
2022/03/06 07:31:31;;;;;;;;;20.33;18.33;;;;;;;;5199414;27;13252;-74
2022/03/06 07:33:57;;;;;;;;;31.50;23.50;;;;;;;;5198928;27;14429;-75
2022/03/06 07:36:23;;;;;;;;;19.67;16.00;;;;;;;;5200135;27;13357;-72
2022/03/06 07:38:48;;;;;;;;;23.33;18.67;;;;;;;;5199932;27;14454;-74
2022/03/06 07:41:13;;;;;;;;;19.00;18.00;;;;;;;;5193260;27;13218;-77
2022/03/06 07:43:39;;;;;;;;;18.67;16.67;;;;;;;;5191648;27;13277;-75
2022/03/06 07:46:04;;;;;;;;;21.67;18.00;;;;;;;;5167684;27;11666;-74
2022/03/06 07:48:29;;;;;;;;;21.67;14.33;;;;;;;;5188599;27;13203;-76
2022/03/06 07:50:54;;;;;;;;;25.67;18.33;;;;;;;;5167817;27;9334;-74
2022/03/06 07:53:20;;;;;;;;;23.33;19.67;;;;;;;;5187643;27;8846;-74
2022/03/06 07:55:45;;;;;;;;;8.33;7.00;;;;;;;;5188997;27;11386;-73
2022/03/06 07:58:11;;;;;;;;;15.33;15.33;;;;;;;;5188504;27;22523;-72
2022/03/06 08:00:36;;;;;;;;;24.00;19.00;;;;;;;;5187138;27;22367;-73
2022/03/06 08:03:01;;;;;;;;;22.67;14.67;;;;;;;;5166189;27;15284;-73
2022/03/06 08:05:27;;;;;;;;;19.00;16.33;;;;;;;;5186131;27;11355;-74
2022/03/06 08:07:52;;;;;;;;;18.67;16.00;;;;;;;;5186071;27;13217;-75
2022/03/06 08:10:17;;;;;;;;;17.67;13.00;;;;;;;;5188975;27;12713;-75
2022/03/06 08:12:42;;;;;;;;;23.00;20.00;;;;;;;;5186506;27;8798;-76
2022/03/06 08:15:08;;;;;;;;;15.67;15.67;;;;;;;;5177340;27;13903;-76
2022/03/06 08:17:35;;;;;;;;;20.67;16.00;;;;;;;;5168024;27;13467;-76
2022/03/06 08:20:00;;;;;;;;;21.75;17.50;;;;;;;;5164136;27;13597;-77
2022/03/06 08:22:26;;;;;;;;;14.75;14.75;;;;;;;;5144968;27;12249;-76
2022/03/06 08:24:51;;;;;;;;;17.00;17.00;;;;;;;;5164128;27;13331;-76
2022/03/06 08:27:17;;;;;;;;;23.50;19.00;;;;;;;;5164212;27;11588;-75
2022/03/06 08:29:42;;;;;;;;;17.75;16.75;;;;;;;;5163259;27;12548;-79
2022/03/06 08:32:07;;;;;;;;;19.50;17.00;;;;;;;;5163049;27;13432;-76
2022/03/06 08:34:33;;;;;;;;;18.25;16.75;;;;;;;;5163624;27;11566;-76
2022/03/06 08:36:58;;;;;;;;;16.50;15.00;;;;;;;;5163478;27;11358;-75
2022/03/06 08:39:23;;;;;;;;;15.50;13.75;;;;;;;;5163878;27;11649;-75
2022/03/06 08:41:49;;;;;;;;;21.25;16.50;;;;;;;;5163422;27;11622;-77
2022/03/06 08:44:14;;;;;;;;;18.25;15.00;;;;;;;;5163516;27;14783;-75
2022/03/06 08:46:39;;;;;;;;;16.00;15.50;;;;;;;;5163815;27;13508;-75
2022/03/06 08:49:05;;;;;;;;;22.50;17.00;;;;;;;;5163418;27;12088;-74
2022/03/06 08:51:32;;;;;;;;;19.25;15.75;;;;;;;;5163552;27;14473;-74
2022/03/06 08:53:57;;;;;;;;;18.00;16.25;;;;;;;;5162875;27;13470;-74
2022/03/06 08:56:23;;;;;;;;;16.00;16.00;;;;;;;;5164777;27;10806;-72
2022/03/06 08:58:48;;;;;;;;;20.00;16.00;;;;;;;;5173231;27;11479;-72
2022/03/06 09:01:13;;;;;;;;;14.00;12.50;;;;;;;;5171210;27;8907;-73
2022/03/06 09:03:38;;;;;;;;;15.50;15.00;;;;;;;;5173518;27;13613;-73
2022/03/06 09:06:04;;;;;;;;;15.00;14.25;;;;;;;;5181555;27;11552;-74
2022/03/06 09:08:29;;;;;;;;;17.75;15.75;;;;;;;;5174383;27;10327;-72
2022/03/06 09:10:54;;;;;;;;;19.25;16.00;;;;;;;;5171009;27;10463;-74
2022/03/06 09:13:20;;;;;;;;;18.25;16.00;;;;;;;;5167225;27;11497;-74
2022/03/06 09:15:45;;;;;;;;;18.25;14.75;;;;;;;;5180513;27;9454;-75
2022/03/06 09:18:10;;;;;;;;;15.75;13.25;;;;;;;;5182571;27;8886;-73
2022/03/06 09:20:36;;;;;;;;;13.75;13.50;;;;;;;;5183137;27;10327;-73
2022/03/06 09:23:03;;;;;;;;;16.75;13.25;;;;;;;;5182766;27;11470;-72
2022/03/06 09:25:32;;;;;;;;;20.25;14.50;;;;;;;;5174944;27;11625;-72
2022/03/06 09:27:58;;;;;;;;;18.25;16.50;;;;;;;;5171737;27;13317;-74
2022/03/06 09:30:23;;;;;;;;;20.25;16.75;;;;;;;;5165741;27;11123;-73
2022/03/06 09:32:48;;;;;;;;;15.50;15.50;;;;;;;;5168143;27;13216;-73
2022/03/06 09:35:13;;;;;;;;;17.50;13.50;;;;;;;;5164711;27;13181;-75
2022/03/06 09:37:39;;;;;;;;;16.50;14.00;;;;;;;;5164825;27;8820;-72
2022/03/06 09:40:05;;;;;;;;;18.75;14.50;;;;;;;;5164206;27;13394;-73
2022/03/06 09:42:30;;;;;;;;;18.50;16.75;;;;;;;;5183348;27;11373;-72
2022/03/06 09:44:55;;;;;;;;;15.75;13.75;;;;;;;;5183421;27;10329;-73
2022/03/06 09:47:22;;;;;;;;;17.75;14.75;;;;;;;;5173694;27;10332;-74
2022/03/06 09:49:47;;;;;;;;;20.25;14.00;;;;;;;;5162243;27;9605;-75
2022/03/06 09:52:13;;;;;;;;;15.50;13.00;;;;;;;;5169989;27;13521;-76
2022/03/06 09:54:40;;;;;;;;;20.25;14.00;;;;;;;;5183075;27;12222;-75
2022/03/06 09:57:06;;;;;;;;;17.25;17.25;;;;;;;;5183422;27;12273;-76
2022/03/06 09:59:31;;;;;;;;;14.00;12.00;;;;;;;;5183437;27;13216;-77
2022/03/06 10:02:03;;;;;;;;;18.25;14.75;;;;;;;;5181364;27;11431;-75
2022/03/06 10:04:30;;;;;;;;;17.75;13.25;;;;;;;;5142508;27;11891;-76
2022/03/06 10:06:59;;;;;;;;;17.50;12.25;;;;;;;;5142927;27;12864;-74
2022/03/06 10:09:25;;;;;;;;;13.00;9.75;;;;;;;;5143051;27;11465;-73
2022/03/06 10:11:52;;;;;;;;;17.00;12.25;;;;;;;;5160963;27;21563;-77
2022/03/06 10:14:37;;;;;;;;;20.00;17.00;;;;;;;;5161972;27;21949;-76
2022/03/06 10:17:08;;;;;;;;;18.33;14.67;;;;;;;;5161689;27;15106;-75
2022/03/06 10:19:52;;;;;;;;;15.67;12.33;;;;;;;;5161993;27;13531;-75
2022/03/06 10:22:18;;;;;;;;;14.33;12.00;;;;;;;;5168187;27;11484;-74
2022/03/06 10:24:46;;;;;;;;;22.33;12.00;;;;;;;;5180674;27;11528;-75
2022/03/06 10:27:15;;;;;;;;;22.00;13.67;;;;;;;;5177672;27;8843;-78
2022/03/06 10:29:40;;;;;;;;;14.67;12.00;;;;;;;;5153670;27;13057;-75
2022/03/06 10:32:07;;;;;;;;;14.33;12.00;;;;;;;;5151112;27;15533;-74
2022/03/06 10:34:39;;;;;;;;;15.33;12.00;;;;;;;;5174085;27;8889;-74
2022/03/06 10:37:05;;;;;;;;;14.67;11.33;;;;;;;;5170800;27;8880;-74
2022/03/06 10:39:41;;;;;;;;;14.67;12.33;;;;;;;;5152527;27;13893;-73
2022/03/06 10:42:08;;;;;;;;;18.33;12.67;;;;;;;;5170989;27;8808;-74
2022/03/06 10:44:46;;;;;;;;;14.33;12.67;;;;;;;;5172040;27;11678;-73
2022/03/06 10:47:12;;;;;;;;;18.67;14.33;;;;;;;;5153190;27;9321;-76
2022/03/06 10:49:37;;;;;;;;;13.33;12.00;;;;;;;;5172548;27;11372;-74
2022/03/06 10:52:12;;;;;;;;;11.00;11.00;;;;;;;;5153781;27;14203;-74
2022/03/06 10:54:51;;;;;;;;;16.67;12.00;;;;;;;;5172426;27;10721;-73
2022/03/06 10:57:16;;;;;;;;;18.00;15.00;;;;;;;;5172197;27;10665;-74
2022/03/06 10:59:43;;;;;;;;;10.33;6.33;;;;;;;;5171013;27;10478;-74
2022/03/06 11:02:09;;;;;;;;;12.00;12.00;;;;;;;;5172054;27;22697;-73
2022/03/06 11:04:36;;;;;;;;;18.33;12.00;;;;;;;;5169481;27;21471;-73
2022/03/06 11:07:04;;;;;;;;;15.67;11.00;;;;;;;;5172048;27;8787;-75
2022/03/06 11:09:30;;;;;;;;;16.00;12.00;;;;;;;;5182360;27;10625;-74
2022/03/06 11:11:55;;;;;;;;;12.00;11.00;;;;;;;;5182404;27;10302;-74
2022/03/06 11:14:21;;;;;;;;;12.00;11.00;;;;;;;;5182144;27;8818;-73
2022/03/06 11:16:47;;;;;;;;;9.67;6.67;;;;;;;;5182151;27;8750;-74
2022/03/06 11:19:12;;;;;;;;;11.00;9.67;;;;;;;;5162633;27;24248;-74
2022/03/06 11:21:42;;;;;;;;;16.00;13.67;;;;;;;;5162123;27;24551;-75
2022/03/06 11:24:20;;;;;;;;;13.00;12.00;;;;;;;;5181871;27;21742;-75
2022/03/06 11:27:14;;;;;;;;;15.00;11.33;;;;;;;;5181869;27;11679;-74
2022/03/06 11:29:49;;;;;;;;;18.67;13.00;;;;;;;;5089270;27;11457;-75
2022/03/06 11:32:25;;;;;;;;;15.00;11.67;;;;;;;;5181525;27;12639;-76
2022/03/06 11:34:55;;;;;;;;;13.00;11.00;;;;;;;;5162702;27;11701;-74
2022/03/06 11:37:20;;;;;;;;;12.33;6.67;;;;;;;;5162560;27;11788;-76
2022/03/06 11:39:47;;;;;;;;;15.00;13.00;;;;;;;;5164411;27;21485;-76
2022/03/06 11:42:32;;;;;;;;;11.33;9.67;;;;;;;;5160375;27;21722;-74
2022/03/06 11:44:57;;;;;;;;;15.33;11.67;;;;;;;;5160450;27;21541;-74
2022/03/06 11:47:35;;;;;;;;;16.00;12.33;;;;;;;;5160114;27;22610;-74
2022/03/06 11:50:00;;;;;;;;;15.00;9.00;;;;;;;;5161551;27;11969;-72
2022/03/06 11:52:26;;;;;;;;;15.67;11.00;;;;;;;;5163655;27;23215;-73
2022/03/06 11:54:52;;;;;;;;;12.33;11.00;;;;;;;;5163585;27;21611;-78
2022/03/06 11:57:36;;;;;;;;;16.00;13.33;;;;;;;;5164142;27;8888;-75
2022/03/06 12:00:13;;;;;;;;;9.67;8.67;;;;;;;;5145407;27;13787;-73
2022/03/06 12:02:49;;;;;;;;;16.00;14.00;;;;;;;;5166579;27;22241;-73
2022/03/06 12:05:16;;;;;;;;;21.67;15.00;;;;;;;;5173776;27;22338;-73
2022/03/06 12:07:42;;;;;;;;;14.00;14.00;;;;;;;;5173672;27;12960;-73
2022/03/06 12:10:08;;;;;;;;;15.00;11.00;;;;;;;;5155898;27;12610;-73
2022/03/06 12:12:35;;;;;;;;;17.67;14.00;;;;;;;;5173774;27;8890;-72
2022/03/06 12:15:11;;;;;;;;;12.00;10.33;;;;;;;;5172902;27;10486;-73
2022/03/06 12:17:37;;;;;;;;;17.67;14.00;;;;;;;;5150232;27;12128;-74
2022/03/06 12:20:08;;;;;;;;;9.67;4.00;;;;;;;;5163501;27;11368;-74
2022/03/06 12:22:33;;;;;;;;;13.33;12.00;;;;;;;;5164214;27;22331;-73
2022/03/06 12:25:11;;;;;;;;;12.00;11.00;;;;;;;;5163987;27;22495;-73
2022/03/06 12:28:02;;;;;;;;;15.33;12.00;;;;;;;;5163966;27;10945;-73
2022/03/06 12:30:28;;;;;;;;;14.33;11.67;;;;;;;;5163529;27;10434;-73
2022/03/06 12:32:53;;;;;;;;;12.67;11.00;;;;;;;;5163202;27;11367;-73
2022/03/06 12:35:22;;;;;;;;;17.00;14.00;;;;;;;;5144267;27;14685;-75
2022/03/06 12:38:01;;;;;;;;;14.00;8.00;;;;;;;;5163719;27;10955;-73
2022/03/06 12:40:30;;;;;;;;;16.67;14.00;;;;;;;;5163616;27;22562;-73
2022/03/06 12:43:06;;;;;;;;;15.33;12.00;;;;;;;;5163194;27;21616;-73
2022/03/06 12:45:32;;;;;;;;;16.00;12.67;;;;;;;;5163335;27;10957;-73
2022/03/06 12:47:58;;;;;;;;;21.00;13.33;;;;;;;;5163358;27;11523;-73
2022/03/06 12:50:24;;;;;;;;;15.67;14.33;;;;;;;;5172270;27;13616;-72
2022/03/06 12:52:52;;;;;;;;;15.00;11.00;;;;;;;;5166646;27;12517;-72
2022/03/06 12:55:22;;;;;;;;;14.33;11.67;;;;;;;;5171935;27;11679;-72
2022/03/06 12:57:58;;;;;;;;;17.00;12.67;;;;;;;;5153881;27;12234;-72
2022/03/06 13:00:26;;;;;;;;;12.00;11.00;;;;;;;;5171894;27;10460;-72
2022/03/06 13:02:58;;;;;;;;;12.00;12.00;;;;;;;;5170772;27;11482;-71
2022/03/06 13:05:24;;;;;;;;;20.33;13.33;;;;;;;;5155051;27;8845;-72
2022/03/06 13:07:50;;;;;;;;;14.33;13.33;;;;;;;;5170371;27;13258;-73
2022/03/06 13:10:17;;;;;;;;;11.00;11.00;;;;;;;;5172484;27;8801;-73
2022/03/06 13:12:44;;;;;;;;;17.67;13.67;;;;;;;;5172253;27;11498;-72
2022/03/06 13:15:12;;;;;;;;;14.67;13.00;;;;;;;;5170208;27;11486;-72
2022/03/06 13:17:38;;;;;;;;;19.00;15.00;;;;;;;;5171333;27;11500;-71
2022/03/06 13:20:03;;;;;;;;;2.00;2.00;;;;;;;;5167250;27;10392;-72
2022/03/06 13:22:28;;;;;;;;;13.33;9.67;;;;;;;;5169292;27;22393;-72
2022/03/06 13:24:55;;;;;;;;;14.00;14.00;;;;;;;;5170380;27;21415;-73
2022/03/06 13:27:22;;;;;;;;;13.67;12.00;;;;;;;;5178862;27;21482;-74
2022/03/06 13:30:07;;;;;;;;;14.33;11.00;;;;;;;;5175208;27;10734;-74
2022/03/06 13:32:34;;;;;;;;;14.00;11.33;;;;;;;;5152252;27;11127;-73
2022/03/06 13:34:59;;;;;;;;;14.33;11.33;;;;;;;;5171335;27;8820;-73
2022/03/06 13:37:32;;;;;;;;;12.33;9.00;;;;;;;;5172919;27;8789;-73
2022/03/06 13:39:57;;;;;;;;;14.00;11.00;;;;;;;;5169784;27;21695;-73
2022/03/06 13:42:33;;;;;;;;;11.00;9.00;;;;;;;;5174147;27;21405;-73
2022/03/06 13:44:59;;;;;;;;;9.67;9.67;;;;;;;;5181373;27;21541;-73
2022/03/06 13:47:24;;;;;;;;;11.00;8.67;;;;;;;;5161694;27;21781;-73
2022/03/06 13:50:00;;;;;;;;;11.00;10.33;;;;;;;;5183529;27;22807;-75
2022/03/06 13:52:32;;;;;;;;;12.67;9.00;;;;;;;;5183567;27;16401;-73
2022/03/06 13:55:08;;;;;;;;;14.00;10.33;;;;;;;;5181520;27;21738;-73
2022/03/06 13:57:34;;;;;;;;;13.00;11.00;;;;;;;;5182245;27;22501;-73
2022/03/06 14:00:19;;;;;;;;;12.67;11.67;;;;;;;;5150602;27;13988;-72
2022/03/06 14:02:45;;;;;;;;;17.00;13.33;;;;;;;;5161795;27;11395;-72
2022/03/06 14:05:10;;;;;;;;;7.67;7.67;;;;;;;;5162114;27;11521;-71
2022/03/06 14:07:35;;;;;;;;;12.33;11.67;;;;;;;;5161685;27;22404;-73
2022/03/06 14:10:01;;;;;;;;;9.00;5.00;;;;;;;;5161341;27;23046;-72
2022/03/06 14:12:32;;;;;;;;;17.33;12.67;;;;;;;;5160423;27;22204;-74
2022/03/06 14:14:58;;;;;;;;;24.00;14.67;;;;;;;;5148993;27;25417;-73
2022/03/06 14:17:23;;;;;;;;;17.67;13.33;;;;;;;;5149739;27;14535;-74
2022/03/06 14:19:55;;;;;;;;;7.00;7.00;;;;;;;;5170668;27;14378;-74
2022/03/06 14:22:20;;;;;;;;;10.33;9.00;;;;;;;;5168583;27;22174;-78
2022/03/06 14:24:45;;;;;;;;;13.33;11.67;;;;;;;;5169642;27;22706;-75
2022/03/06 14:27:11;;;;;;;;;16.33;11.00;;;;;;;;5171364;27;21651;-77
2022/03/06 14:29:36;;;;;;;;;12.00;12.00;;;;;;;;5168672;27;11673;-75
2022/03/06 14:32:01;;;;;;;;;10.33;10.33;;;;;;;;5171569;27;10376;-75
2022/03/06 14:34:28;;;;;;;;;14.00;11.00;;;;;;;;5169211;27;11427;-77
2022/03/06 14:36:54;;;;;;;;;22.00;14.00;;;;;;;;5170751;27;11514;-78
2022/03/06 14:39:20;;;;;;;;;11.33;8.67;;;;;;;;5171640;27;10633;-78
2022/03/06 14:41:45;;;;;;;;;13.00;8.00;;;;;;;;5169042;27;22445;-78
2022/03/06 14:44:11;;;;;;;;;15.33;12.00;;;;;;;;5171138;27;10483;-74
2022/03/06 14:46:39;;;;;;;;;11.67;11.67;;;;;;;;5170877;27;22485;-74
2022/03/06 14:49:05;;;;;;;;;12.00;8.00;;;;;;;;5169457;27;11458;-74
2022/03/06 14:51:30;;;;;;;;;11.67;9.00;;;;;;;;5171301;27;21437;-74
2022/03/06 14:53:56;;;;;;;;;11.33;10.33;;;;;;;;5170403;27;10678;-74
2022/03/06 14:56:21;;;;;;;;;7.33;7.33;;;;;;;;5171961;27;21473;-75
2022/03/06 14:58:47;;;;;;;;;6.33;5.00;;;;;;;;5168878;27;23264;-73
2022/03/06 15:01:12;;;;;;;;;11.67;9.00;;;;;;;;5169582;27;11566;-74
2022/03/06 15:03:38;;;;;;;;;13.33;7.67;;;;;;;;5144498;27;23249;-74
2022/03/06 15:06:05;;;;;;;;;12.00;8.67;;;;;;;;5172089;27;10522;-75
2022/03/06 15:08:30;;;;;;;;;9.00;9.00;;;;;;;;5167669;27;10368;-73
2022/03/06 15:10:55;;;;;;;;;8.33;8.00;;;;;;;;5170778;27;21291;-73
2022/03/06 15:13:21;;;;;;;;;10.00;9.00;;;;;;;;5172101;27;10243;-73
2022/03/06 15:15:47;;;;;;;;;10.33;8.67;;;;;;;;5180833;27;21558;-73
2022/03/06 15:18:12;;;;;;;;;10.33;8.67;;;;;;;;5163304;27;10731;-74
2022/03/06 15:20:38;;;;;;;;;11.67;11.67;;;;;;;;5171835;27;8819;-74
2022/03/06 15:23:03;;;;;;;;;13.33;8.67;;;;;;;;5168399;27;21707;-74
2022/03/06 15:25:29;;;;;;;;;10.67;10.33;;;;;;;;5175997;27;22432;-77
2022/03/06 15:27:54;;;;;;;;;10.33;8.67;;;;;;;;5181440;27;21394;-78
2022/03/06 15:30:19;;;;;;;;;11.00;8.33;;;;;;;;5146955;27;23846;-77
2022/03/06 15:32:45;;;;;;;;;12.00;11.00;;;;;;;;5159797;27;10276;-78
2022/03/06 15:35:10;;;;;;;;;10.67;9.00;;;;;;;;5164042;27;21398;-75
2022/03/06 15:37:36;;;;;;;;;11.67;11.67;;;;;;;;5165239;27;21403;-75
2022/03/06 15:40:03;;;;;;;;;7.67;5.67;;;;;;;;5164379;27;21399;-75
2022/03/06 15:42:32;;;;;;;;;10.33;8.67;;;;;;;;5145356;27;24612;-75
2022/03/06 15:44:57;;;;;;;;;8.00;7.00;;;;;;;;5164413;27;21449;-78
2022/03/06 15:47:22;;;;;;;;;12.33;7.67;;;;;;;;5164392;27;21860;-75
2022/03/06 15:49:48;;;;;;;;;12.00;9.00;;;;;;;;5184687;27;21728;-76
2022/03/06 15:52:13;;;;;;;;;11.00;9.00;;;;;;;;5185737;27;10436;-75
2022/03/06 15:54:41;;;;;;;;;14.33;9.00;;;;;;;;5185738;27;8805;-75
2022/03/06 15:57:06;;;;;;;;;7.67;7.00;;;;;;;;5185105;27;8911;-76
2022/03/06 15:59:32;;;;;;;;;8.67;7.67;;;;;;;;5185690;27;21523;-75
2022/03/06 16:01:57;;;;;;;;;13.33;10.33;;;;;;;;5166505;27;13370;-75
2022/03/06 16:04:22;;;;;;;;;9.00;9.00;;;;;;;;5184522;27;22482;-78
2022/03/06 16:06:48;;;;;;;;;6.33;6.33;;;;;;;;5185254;27;22530;-81
2022/03/06 16:09:13;;;;;;;;;15.67;11.00;;;;;;;;5185675;27;11335;-79
2022/03/06 16:11:38;;;;;;;;;12.33;9.33;;;;;;;;5185315;27;22231;-79
2022/03/06 16:14:04;;;;;;;;;10.00;8.67;;;;;;;;5184815;27;22798;-79
2022/03/06 16:16:30;;;;;;;;;10.67;9.67;;;;;;;;5185202;27;10302;-79
2022/03/06 16:18:55;;;;;;;;;11.67;8.67;;;;;;;;5155214;27;12122;-78
2022/03/06 16:21:20;;;;;;;;;8.33;8.00;;;;;;;;5174117;27;8916;-78
2022/03/06 16:23:46;;;;;;;;;11.67;8.33;;;;;;;;5171239;27;21919;-78
2022/03/06 16:26:11;;;;;;;;;11.00;8.33;;;;;;;;5171503;27;21307;-83
2022/03/06 16:28:40;;;;;;;;;4.33;1.67;;;;;;;;5165213;27;8865;-78
2022/03/06 16:31:08;;;;;;;;;8.33;7.00;;;;;;;;5151682;27;21622;-76
2022/03/06 16:33:33;;;;;;;;;12.33;9.00;;;;;;;;5172400;27;11425;-76
2022/03/06 16:35:59;;;;;;;;;9.33;9.33;;;;;;;;5172233;27;21379;-75
2022/03/06 16:38:26;;;;;;;;;11.00;11.00;;;;;;;;5170574;27;21635;-75
2022/03/06 16:40:55;;;;;;;;;10.00;6.33;;;;;;;;5171980;27;22608;-74
2022/03/06 16:43:21;;;;;;;;;5.67;4.33;;;;;;;;5152031;27;22652;-77
2022/03/06 16:45:47;;;;;;;;;4.00;4.00;;;;;;;;5168889;27;21549;-79
2022/03/06 16:48:12;;;;;;;;;11.33;7.00;;;;;;;;5151766;27;13586;-76
2022/03/06 16:50:39;;;;;;;;;9.00;7.00;;;;;;;;5151960;27;24072;-82
2022/03/06 16:53:05;;;;;;;;;0.67;0.67;;;;;;;;5155743;27;18575;-82
2022/03/06 16:55:30;;;;;;;;;7.00;7.00;;;;;;;;5172364;27;12736;-83
2022/03/06 16:57:56;;;;;;;;;10.33;9.00;;;;;;;;5167863;27;11351;-84
2022/03/06 17:00:21;;;;;;;;;11.00;8.00;;;;;;;;5150649;27;23674;-81
2022/03/06 17:02:46;;;;;;;;;9.00;8.00;;;;;;;;5168659;27;10491;-81
2022/03/06 17:05:14;;;;;;;;;8.00;7.00;;;;;;;;5170464;27;16205;-79
2022/03/06 17:07:42;;;;;;;;;13.33;11.00;;;;;;;;5150804;27;8813;-79
2022/03/06 17:10:10;;;;;;;;;10.67;5.67;;;;;;;;5171923;27;22979;-77
2022/03/06 17:12:37;;;;;;;;;14.00;8.00;;;;;;;;5170623;27;21788;-80
2022/03/06 17:15:03;;;;;;;;;9.67;7.33;;;;;;;;5150131;27;10927;-78
2022/03/06 17:17:28;;;;;;;;;9.33;8.00;;;;;;;;5168549;27;22682;-79
2022/03/06 17:19:53;;;;;;;;;8.00;7.67;;;;;;;;5168917;27;10589;-79
2022/03/06 17:22:19;;;;;;;;;5.67;4.00;;;;;;;;5168068;27;11303;-83
2022/03/06 17:24:46;;;;;;;;;8.67;8.33;;;;;;;;5169468;27;12440;-84
2022/03/06 17:27:12;;;;;;;;;8.67;5.67;;;;;;;;5171394;27;11543;-93
2022/03/06 17:29:37;;;;;;;;;9.67;8.33;;;;;;;;5150259;27;10490;-85
2022/03/06 17:32:08;;;;;;;;;14.00;8.00;;;;;;;;5178935;27;11795;-89
2022/03/06 17:34:33;;;;;;;;;7.33;5.00;;;;;;;;5182697;27;21711;-88
2022/03/06 17:36:59;;;;;;;;;12.33;8.67;;;;;;;;5182853;27;21465;-92
2022/03/06 17:39:24;;;;;;;;;13.00;9.33;;;;;;;;5163789;27;24108;-81
2022/03/06 17:41:50;;;;;;;;;8.67;7.00;;;;;;;;5163827;27;12877;-90
2022/03/06 17:44:18;;;;;;;;;8.67;6.67;;;;;;;;5163208;27;23588;-88
2022/03/06 17:46:44;;;;;;;;;9.00;8.00;;;;;;;;5173973;27;9043;-84
2022/03/06 17:49:09;;;;;;;;;8.33;7.67;;;;;;;;5150653;27;13840;-88
2022/03/06 17:51:34;;;;;;;;;11.00;9.33;;;;;;;;5151600;27;13135;-86
2022/03/06 17:53:59;;;;;;;;;7.33;7.33;;;;;;;;5171212;27;21603;-88
2022/03/06 17:56:25;;;;;;;;;12.00;8.33;;;;;;;;5150145;27;24138;-88
2022/03/06 17:58:50;;;;;;;;;11.00;10.33;;;;;;;;5176338;27;21804;-88
2022/03/06 18:01:16;;;;;;;;;7.67;7.67;;;;;;;;5158330;27;23465;-85
2022/03/06 18:03:49;;;;;;;;;10.00;10.00;;;;;;;;5166281;27;22582;-86
2022/03/06 18:06:15;;;;;;;;;10.00;8.00;;;;;;;;5147702;27;24778;-85
2022/03/06 18:08:43;;;;;;;;;8.00;8.00;;;;;;;;5171069;27;16523;-90
2022/03/06 18:11:09;;;;;;;;;10.33;8.67;;;;;;;;5152269;27;18595;-87
2022/03/06 18:13:35;;;;;;;;;10.00;8.00;;;;;;;;5169500;27;21602;-80
2022/03/06 18:16:03;;;;;;;;;11.00;10.33;;;;;;;;5170499;27;8776;-84
2022/03/06 18:18:34;;;;;;;;;11.67;10.00;;;;;;;;5172010;27;22011;-90
2022/03/06 18:21:03;;;;;;;;;15.00;10.00;;;;;;;;5168955;27;8886;-88
2022/03/06 18:23:29;;;;;;;;;15.33;8.00;;;;;;;;5152516;27;11244;-85
2022/03/06 18:25:55;;;;;;;;;11.33;7.33;;;;;;;;5149101;27;23349;-80
2022/03/06 18:28:23;;;;;;;;;11.00;11.00;;;;;;;;5169007;27;10671;-87
2022/03/06 18:30:51;;;;;;;;;7.00;5.67;;;;;;;;5170815;27;21909;-83
2022/03/06 18:33:16;;;;;;;;;10.00;7.00;;;;;;;;5151554;27;22603;-80
2022/03/06 18:35:42;;;;;;;;;9.33;8.00;;;;;;;;5167071;27;21899;-79
2022/03/06 18:38:07;;;;;;;;;13.00;10.33;;;;;;;;5169040;27;21507;-79
2022/03/06 18:40:32;;;;;;;;;10.00;8.00;;;;;;;;5167548;27;22879;-83
2022/03/06 18:42:58;;;;;;;;;10.33;10.00;;;;;;;;5169666;27;21481;-78
2022/03/06 18:45:23;;;;;;;;;8.00;7.67;;;;;;;;5169118;27;21487;-80
2022/03/06 18:47:48;;;;;;;;;16.33;11.00;;;;;;;;5167330;27;23543;-83
2022/03/06 18:50:14;;;;;;;;;10.33;10.00;;;;;;;;5151213;27;24710;-85
2022/03/06 18:52:42;;;;;;;;;14.67;10.67;;;;;;;;5144838;27;10615;-81
2022/03/06 18:55:07;;;;;;;;;11.00;11.00;;;;;;;;5139611;27;15179;-81
2022/03/06 18:57:33;;;;;;;;;12.33;11.00;;;;;;;;5165286;27;11512;-79
2022/03/06 18:59:58;;;;;;;;;11.33;10.00;;;;;;;;5177570;27;8906;-78
2022/03/06 19:02:23;;;;;;;;;15.67;10.00;;;;;;;;5181455;27;9002;-79
2022/03/06 19:04:49;;;;;;;;;13.33;11.00;;;;;;;;5181595;27;9057;-82
2022/03/06 19:07:16;;;;;;;;;7.00;7.00;;;;;;;;5181436;27;10329;-81
2022/03/06 19:09:42;;;;;;;;;12.67;10.00;;;;;;;;5180347;27;23546;-79
2022/03/06 19:12:07;;;;;;;;;16.00;11.67;;;;;;;;5167010;27;22501;-80
2022/03/06 19:14:36;;;;;;;;;17.33;16.67;;;;;;;;5168906;27;11918;-79
2022/03/06 19:17:01;;;;;;;;;17.33;13.33;;;;;;;;5167522;27;10638;-78
2022/03/06 19:19:29;;;;;;;;;17.00;14.00;;;;;;;;5159000;27;8894;-80
2022/03/06 19:21:54;;;;;;;;;21.33;10.33;;;;;;;;5161269;27;10488;-81
2022/03/06 19:24:19;;;;;;;;;10.67;10.00;;;;;;;;5160433;27;14659;-81
2022/03/06 19:26:45;;;;;;;;;20.33;13.00;;;;;;;;5160239;27;13409;-81
2022/03/06 19:29:11;;;;;;;;;20.00;13.00;;;;;;;;5141134;27;14119;-79
2022/03/06 19:31:36;;;;;;;;;15.33;13.00;;;;;;;;5160710;27;9547;-78
2022/03/06 19:34:02;;;;;;;;;10.33;10.33;;;;;;;;5165706;27;10223;-83
2022/03/06 19:36:28;;;;;;;;;19.00;13.33;;;;;;;;5175744;27;11592;-82
2022/03/06 19:38:54;;;;;;;;;12.67;11.33;;;;;;;;5181012;27;10342;-82
2022/03/06 19:41:19;;;;;;;;;14.00;11.00;;;;;;;;5180078;27;11084;-82
2022/03/06 19:43:46;;;;;;;;;15.33;13.00;;;;;;;;5181569;27;11366;-85
2022/03/06 19:46:11;;;;;;;;;13.67;8.67;;;;;;;;5179489;27;10433;-82
2022/03/06 19:48:36;;;;;;;;;17.67;10.67;;;;;;;;5162347;27;24827;-86
2022/03/06 19:51:02;;;;;;;;;17.00;13.00;;;;;;;;5183467;27;22225;-82
2022/03/06 19:53:27;;;;;;;;;13.33;11.67;;;;;;;;5163240;27;12374;-80
2022/03/06 19:55:52;;;;;;;;;13.33;11.00;;;;;;;;5161953;27;11838;-81
2022/03/06 19:58:18;;;;;;;;;16.00;11.67;;;;;;;;5181140;27;8765;-79
2022/03/06 20:00:47;;;;;;;;;12.33;12.33;;;;;;;;5179192;27;11349;-80
2022/03/06 20:03:12;;;;;;;;;13.33;13.00;;;;;;;;5160507;27;11463;-84
2022/03/06 20:05:38;;;;;;;;;12.33;12.33;;;;;;;;5181030;27;11414;-83
2022/03/06 20:08:04;;;;;;;;;20.00;13.00;;;;;;;;5158080;27;13144;-89
2022/03/06 20:10:31;;;;;;;;;14.00;14.00;;;;;;;;5154557;27;15259;-84
2022/03/06 20:12:58;;;;;;;;;13.00;10.00;;;;;;;;5180457;27;10696;-87
2022/03/06 20:15:23;;;;;;;;;22.00;14.00;;;;;;;;5106379;28;11101;-87
2022/03/06 20:17:48;;;;;;;;;15.67;14.67;;;;;;;;5107057;28;10629;-83
2022/03/06 20:20:17;;;;;;;;;15.67;13.67;;;;;;;;5111161;28;13257;-89
2022/03/06 20:22:43;;;;;;;;;19.67;15.33;;;;;;;;5111787;28;8883;-80
2022/03/06 20:25:12;;;;;;;;;17.67;15.00;;;;;;;;5108860;28;11378;-81
2022/03/06 20:27:38;;;;;;;;;19.67;17.67;;;;;;;;5109717;28;11436;-79
2022/03/06 20:30:06;;;;;;;;;25.00;21.00;;;;;;;;5144903;27;11555;-81
2022/03/06 20:32:51;;;;;;;;;24.67;19.67;;;;;;;;5151933;27;13832;-80
2022/03/06 20:35:20;;;;;;;;;29.00;22.00;;;;;;;;5173015;27;12557;-79
2022/03/06 20:37:48;;;;;;;;;23.00;18.67;;;;;;;;5171816;27;12436;-80
2022/03/06 20:40:17;;;;;;;;;26.00;22.00;;;;;;;;5166409;27;12841;-80
2022/03/06 20:42:42;;;;;;;;;22.67;20.67;;;;;;;;5181822;27;12356;-80
2022/03/06 20:45:08;;;;;;;;;21.00;18.67;;;;;;;;5183108;27;11379;-80
2022/03/06 20:47:33;;;;;;;;;28.00;23.75;;;;;;;;5183518;27;11362;-79
2022/03/06 20:50:04;;;;;;;;;28.25;22.75;;;;;;;;5164473;27;14144;-79
2022/03/06 20:52:29;;;;;;;;;21.00;17.00;;;;;;;;5183488;27;9598;-79
2022/03/06 20:54:54;;;;;;;;;25.33;17.33;;;;;;;;5182753;27;12447;-79
2022/03/06 20:57:20;;;;;;;;;13.67;13.00;;;;;;;;5182431;27;11670;-80
2022/03/06 20:59:50;;;;;;;;;20.33;16.00;;;;;;;;5183313;27;13284;-79
2022/03/06 21:02:18;;;;;;;;;21.00;17.33;;;;;;;;5183022;27;12325;-80
2022/03/06 21:04:43;;;;;;;;;21.00;16.33;;;;;;;;5183550;27;11682;-80
2022/03/06 21:07:09;;;;;;;;;17.67;13.00;;;;;;;;5184297;27;8789;-79
2022/03/06 21:09:35;;;;;;;;;15.00;14.33;;;;;;;;5183430;27;13691;-79
2022/03/06 21:12:08;;;;;;;;;17.00;14.00;;;;;;;;5164558;27;12284;-80
2022/03/06 21:14:48;;;;;;;;;25.67;16.67;;;;;;;;5180192;27;12437;-80
2022/03/06 21:17:14;;;;;;;;;17.33;15.00;;;;;;;;5166191;27;16112;-79
2022/03/06 21:19:43;;;;;;;;;24.00;17.00;;;;;;;;5186661;27;13253;-81
2022/03/06 21:22:09;;;;;;;;;18.67;15.00;;;;;;;;5184918;27;12424;-81
2022/03/06 21:24:37;;;;;;;;;24.00;20.67;;;;;;;;5184318;27;12218;-82
2022/03/06 21:27:04;;;;;;;;;34.50;31.50;;;;;;;;5183207;27;13613;-82